Rattan, Oklahoma
Current Conditions -  °F | °C
As of 12:55 AM on Monday 22 Dec 2014 (Local Time) from KHHW Reporting Station
Overcast Overcast  
Wind Chill: 47°   Ceiling: 1100
Heat Index: 49°   Visibility: 10mi
Dew Point: 45°   Wind: 7mph
Humidity: 85%   Direction: 130°SE
Pressure: 29.73"   Gusts: NA
Location:  34.2°N, 95.41°W
Report Text: KHHW 220655Z AUTO 13006KT 10SM OVC011 10/07 A2973 RMK AO2 T00970073
Loading
Personal Weather Stations






























Interactive Weather Map New forecast layout! Learn more

10-Day Weather Forecast

Advertisements
Track Severe Weather on mobile